createdAt,value
2022-12-14T00:00:42.703Z,100528.94
2022-12-14T00:03:12.059Z,100528.16
2022-12-14T00:05:42.926Z,100522.06
2022-12-14T00:08:12.056Z,100523.06
2022-12-14T00:10:42.139Z,100516.22
2022-12-14T00:13:15.809Z,100523.16
2022-12-14T00:15:44.422Z,100512.06
2022-12-14T00:18:16.696Z,100507.81
2022-12-14T00:20:48.103Z,100509.47
2022-12-14T00:23:16.771Z,100505.00
2022-12-14T00:25:45.299Z,100496.88
2022-12-14T00:28:17.911Z,100500.44
2022-12-14T00:30:46.462Z,100486.31
2022-12-14T00:33:15.150Z,100494.06
2022-12-14T00:35:43.957Z,100494.69
2022-12-14T00:38:14.234Z,100487.75
2022-12-14T00:40:42.892Z,100479.25
2022-12-14T00:43:12.273Z,100472.41
2022-12-14T00:45:45.646Z,100483.94
2022-12-14T00:48:15.810Z,100477.72
2022-12-14T00:50:48.796Z,100478.47
2022-12-14T00:53:19.917Z,100479.38
2022-12-14T00:55:50.144Z,100481.00
2022-12-14T00:58:24.843Z,100477.59
2022-12-14T01:01:01.963Z,100483.53
2022-12-14T01:03:31.535Z,100482.97
2022-12-14T01:06:00.667Z,100476.03
2022-12-14T01:08:35.964Z,100477.75
2022-12-14T01:11:06.792Z,100479.06
2022-12-14T01:13:36.204Z,100472.19
2022-12-14T01:16:07.505Z,100468.84
2022-12-14T01:18:37.404Z,100470.63
2022-12-14T01:21:15.698Z,100468.03
2022-12-14T01:23:47.416Z,100469.88
2022-12-14T01:26:19.717Z,100470.78
2022-12-14T01:28:53.618Z,100476.84
2022-12-14T01:31:29.254Z,100473.66
2022-12-14T01:33:58.437Z,100475.31
2022-12-14T01:36:30.429Z,100471.16
2022-12-14T01:39:06.853Z,100469.63
2022-12-14T01:41:39.802Z,100462.75
2022-12-14T01:44:53.360Z,100453.13
2022-12-14T01:47:29.915Z,100450.50
2022-12-14T01:50:06.920Z,100440.88
2022-12-14T01:52:42.020Z,100434.59
2022-12-14T01:55:19.484Z,100433.47
2022-12-14T01:57:54.879Z,100428.88
2022-12-14T02:00:24.644Z,100419.25
2022-12-14T02:03:03.272Z,100408.91
2022-12-14T02:05:35.546Z,100416.84
2022-12-14T02:08:08.838Z,100409.81
2022-12-14T02:10:39.393Z,100396.09
2022-12-14T02:13:17.710Z,100398.81
2022-12-14T02:15:48.357Z,100403.91
2022-12-14T02:18:23.749Z,100406.44
2022-12-14T02:21:20.424Z,100403.78
2022-12-14T02:24:19.234Z,100402.22
2022-12-14T02:27:23.793Z,100398.88
2022-12-14T02:30:08.094Z,100400.69
2022-12-14T02:33:08.927Z,100397.50
2022-12-14T02:35:49.858Z,100394.97
2022-12-14T02:38:47.820Z,100391.63
2022-12-14T02:41:27.189Z,100396.84
2022-12-14T02:44:12.348Z,100388.88
2022-12-14T02:46:50.501Z,100396.69
2022-12-14T02:49:49.393Z,100397.81
2022-12-14T02:52:37.407Z,100408.22
2022-12-14T02:55:15.508Z,100405.59
2022-12-14T02:57:54.528Z,100401.19
2022-12-14T03:00:24.985Z,100395.88
2022-12-14T03:02:56.626Z,100396.97
2022-12-14T03:05:25.881Z,100391.19
2022-12-14T03:07:58.829Z,100393.03
2022-12-14T03:10:40.666Z,100391.41
2022-12-14T03:13:21.169Z,100391.25
2022-12-14T03:15:58.575Z,100388.69
2022-12-14T03:18:36.719Z,100381.75
2022-12-14T03:21:12.729Z,100377.50
2022-12-14T03:23:48.788Z,100375.09
2022-12-14T03:26:26.062Z,100381.97
2022-12-14T03:29:02.329Z,100381.31
2022-12-14T03:31:42.918Z,100386.53
2022-12-14T03:34:25.931Z,100381.34
2022-12-14T03:37:02.465Z,100377.09
2022-12-14T03:39:36.949Z,100369.28
2022-12-14T03:42:18.995Z,100364.13
2022-12-14T03:45:00.579Z,100361.41
2022-12-14T03:47:55.469Z,100359.03
2022-12-14T03:50:35.653Z,100361.72
2022-12-14T03:53:13.590Z,100360.06
2022-12-14T03:55:57.485Z,100351.41
2022-12-14T03:58:39.761Z,100346.28
2022-12-14T04:01:18.789Z,100340.41
2022-12-14T04:03:54.336Z,100341.28
2022-12-14T04:06:37.644Z,100337.00
2022-12-14T04:09:24.395Z,100331.78
2022-12-14T04:12:21.414Z,100325.81
2022-12-14T04:15:21.526Z,100330.16
2022-12-14T04:18:14.061Z,100330.06
2022-12-14T04:20:50.125Z,100331.91
2022-12-14T04:23:40.651Z,100333.81
2022-12-14T04:26:15.785Z,100316.38
2022-12-14T04:29:08.785Z,100326.84
2022-12-14T04:31:41.627Z,100326.13
2022-12-14T04:34:16.667Z,100315.84
2022-12-14T04:36:50.795Z,100312.56
2022-12-14T04:39:32.337Z,100310.25
2022-12-14T04:42:07.529Z,100314.75
2022-12-14T04:44:42.054Z,100307.03
2022-12-14T04:47:17.557Z,100305.28
2022-12-14T04:49:56.369Z,100301.72
2022-12-14T04:52:34.738Z,100302.69
2022-12-14T04:55:16.261Z,100307.97
2022-12-14T04:57:53.360Z,100302.75
2022-12-14T05:00:22.533Z,100294.22
2022-12-14T05:03:23.219Z,100297.78
2022-12-14T05:06:07.953Z,100296.03
2022-12-14T05:09:14.188Z,100298.56
2022-12-14T05:11:55.297Z,100293.28
2022-12-14T05:14:38.124Z,100295.75
2022-12-14T05:17:09.544Z,100292.25
2022-12-14T05:19:39.333Z,100295.66
2022-12-14T05:22:09.744Z,100287.03
2022-12-14T05:24:38.458Z,100288.72
2022-12-14T05:27:08.643Z,100287.75
2022-12-14T05:29:37.528Z,100287.03
2022-12-14T05:32:06.441Z,100277.50
2022-12-14T05:34:35.831Z,100279.22
2022-12-14T05:37:04.778Z,100272.91
2022-12-14T05:39:33.575Z,100260.91
2022-12-14T05:42:02.287Z,100272.38
2022-12-14T05:44:32.273Z,100268.16
2022-12-14T05:47:00.978Z,100265.50
2022-12-14T05:49:32.935Z,100267.09
2022-12-14T05:52:02.122Z,100263.75
2022-12-14T05:54:31.017Z,100258.72
2022-12-14T05:56:59.818Z,100259.38
2022-12-14T05:59:28.508Z,100260.31
2022-12-14T06:01:58.611Z,100256.03
2022-12-14T06:04:27.401Z,100255.16
2022-12-14T06:06:56.283Z,100261.16
2022-12-14T06:09:25.586Z,100255.94
2022-12-14T06:11:54.291Z,100252.56
2022-12-14T06:14:24.361Z,100251.84
2022-12-14T06:16:53.224Z,100261.47
2022-12-14T06:19:23.693Z,100251.06
2022-12-14T06:21:52.501Z,100247.72
2022-12-14T06:24:21.254Z,100246.94
2022-12-14T06:26:50.087Z,100251.13
2022-12-14T06:29:23.407Z,100250.84
2022-12-14T06:31:52.211Z,100251.59
2022-12-14T06:34:28.601Z,100244.69
2022-12-14T06:36:57.843Z,100232.41
2022-12-14T06:39:26.682Z,100236.69
2022-12-14T06:41:55.571Z,100239.13
2022-12-14T06:44:24.351Z,100237.38
2022-12-14T06:46:52.977Z,100239.13
2022-12-14T06:49:22.105Z,100235.72
2022-12-14T06:51:52.623Z,100238.34
2022-12-14T06:54:21.996Z,100233.19
2022-12-14T06:56:50.611Z,100235.53
2022-12-14T06:59:19.695Z,100227.56
2022-12-14T07:01:49.952Z,100225.88
2022-12-14T07:04:22.976Z,100230.19
2022-12-14T07:06:53.232Z,100225.00
2022-12-14T07:09:22.179Z,100228.31
2022-12-14T07:11:52.457Z,100222.94
2022-12-14T07:14:21.178Z,100222.78
2022-12-14T07:16:50.380Z,100219.09
2022-12-14T07:19:23.219Z,100219.97
2022-12-14T07:21:53.753Z,100212.25
2022-12-14T07:24:22.461Z,100219.31
2022-12-14T07:26:51.343Z,100222.97
2022-12-14T07:29:20.222Z,100227.38
2022-12-14T07:31:49.432Z,100231.75
2022-12-14T07:34:18.893Z,100228.16
2022-12-14T07:36:51.139Z,100229.94
2022-12-14T07:39:23.604Z,100228.16
2022-12-14T07:41:55.718Z,100223.16
2022-12-14T07:44:24.583Z,100228.47
2022-12-14T07:46:56.383Z,100225.06
2022-12-14T07:49:25.322Z,100223.25
2022-12-14T07:51:54.730Z,100218.81
2022-12-14T07:54:26.471Z,100216.13
2022-12-14T07:56:55.626Z,100213.59
2022-12-14T07:59:24.637Z,100215.34
2022-12-14T08:01:56.963Z,100216.31
2022-12-14T08:04:26.043Z,100221.41
2022-12-14T08:06:55.040Z,100223.19
2022-12-14T08:09:25.368Z,100226.03
2022-12-14T08:11:54.053Z,100214.47
2022-12-14T08:14:23.203Z,100217.63
2022-12-14T08:16:52.604Z,100218.78
2022-12-14T08:19:22.721Z,100217.06
2022-12-14T08:21:51.459Z,100211.91
2022-12-14T08:24:20.973Z,100214.41
2022-12-14T08:26:51.044Z,100212.44
2022-12-14T08:29:21.546Z,100213.28
2022-12-14T08:31:50.484Z,100214.84
2022-12-14T08:34:22.948Z,100210.16
2022-12-14T08:36:52.455Z,100203.00
2022-12-14T08:39:21.314Z,100204.41
2022-12-14T08:41:51.456Z,100199.22
2022-12-14T08:44:20.313Z,100208.59
2022-12-14T08:46:49.220Z,100207.50
2022-12-14T08:49:17.944Z,100203.66
2022-12-14T08:51:46.954Z,100186.91
2022-12-14T08:54:15.681Z,100191.91
2022-12-14T08:56:44.279Z,100194.44
2022-12-14T08:59:36.583Z,100183.69
2022-12-14T09:02:04.287Z,100179.91
2022-12-14T09:04:32.994Z,100175.34
2022-12-14T09:07:01.728Z,100180.34
2022-12-14T09:09:33.397Z,100173.19
2022-12-14T09:12:06.809Z,100164.00
2022-12-14T09:14:49.164Z,100169.00
2022-12-14T09:17:20.295Z,100165.13
2022-12-14T09:19:50.926Z,100162.16
2022-12-14T09:22:25.026Z,100161.59
2022-12-14T09:24:57.508Z,100165.41
2022-12-14T09:27:26.389Z,100161.56
2022-12-14T09:29:57.442Z,100159.53
2022-12-14T09:32:26.569Z,100165.84
2022-12-14T09:34:59.649Z,100163.06
2022-12-14T09:37:28.791Z,100159.13
2022-12-14T09:40:00.904Z,100148.38
2022-12-14T09:42:59.198Z,100149.44
2022-12-14T09:45:34.993Z,100141.66
2022-12-14T09:48:18.337Z,100148.00
2022-12-14T09:50:52.990Z,100146.69
2022-12-14T09:53:23.530Z,100128.19
2022-12-14T09:55:57.114Z,100124.59
2022-12-14T09:58:30.229Z,100129.53
2022-12-14T10:01:55.470Z,100120.78
2022-12-14T10:04:52.025Z,100112.72
2022-12-14T10:07:37.334Z,100107.91
2022-12-14T10:10:26.728Z,100096.69
2022-12-14T10:13:11.048Z,100082.31
2022-12-14T10:15:55.187Z,100084.22
2022-12-14T10:18:59.478Z,100067.50
2022-12-14T10:21:48.717Z,100068.72
2022-12-14T10:24:25.418Z,100069.44
2022-12-14T10:26:57.016Z,100058.75
2022-12-14T10:29:38.697Z,100056.34
2022-12-14T10:32:23.076Z,100048.53
2022-12-14T10:34:54.854Z,100044.47
2022-12-14T10:37:30.983Z,100041.03
2022-12-14T10:40:27.453Z,100040.81
2022-12-14T10:43:44.103Z,100043.50
2022-12-14T10:46:26.348Z,100043.75
2022-12-14T10:49:04.099Z,100048.72
2022-12-14T10:51:39.596Z,100041.84
2022-12-14T10:54:21.840Z,100039.63
2022-12-14T10:56:51.257Z,100034.09
2022-12-14T10:59:50.771Z,100031.84
2022-12-14T11:02:33.346Z,100025.59
2022-12-14T11:05:15.016Z,100030.94
2022-12-14T11:07:46.122Z,100029.72
2022-12-14T11:10:19.486Z,100029.50
2022-12-14T11:13:08.004Z,100022.81
2022-12-14T11:15:41.191Z,100008.81
2022-12-14T11:18:31.341Z,100017.53
2022-12-14T11:21:04.749Z,100024.25
2022-12-14T11:23:40.785Z,100020.13
2022-12-14T11:26:16.337Z,100013.44
2022-12-14T11:28:51.464Z,100013.75
2022-12-14T11:31:29.895Z,100020.03
2022-12-14T11:34:01.989Z,100023.16
2022-12-14T11:36:38.215Z,100024.84
2022-12-14T11:39:24.209Z,100010.84
2022-12-14T11:42:04.807Z,100012.72
2022-12-14T11:44:37.404Z,100010.47
2022-12-14T11:47:12.993Z,100012.19
2022-12-14T11:49:47.515Z,100024.13
2022-12-14T11:52:22.309Z,100036.53
2022-12-14T11:55:20.271Z,100027.44
2022-12-14T11:57:58.861Z,100028.09
2022-12-14T12:00:32.274Z,100026.91
2022-12-14T12:03:07.352Z,100032.38
2022-12-14T12:05:42.915Z,100015.91
2022-12-14T12:08:24.946Z,100016.69
2022-12-14T12:11:02.821Z,100011.03
2022-12-14T12:13:39.338Z,100016.59
2022-12-14T12:16:17.120Z,100014.25
2022-12-14T12:18:51.001Z,100015.13
2022-12-14T12:21:31.692Z,100017.72
2022-12-14T12:24:07.771Z,100020.84
2022-12-14T12:26:44.183Z,100038.72
2022-12-14T12:29:26.785Z,100045.31
2022-12-14T12:32:02.840Z,100049.03
2022-12-14T12:34:40.826Z,100051.44
2022-12-14T12:37:26.470Z,100056.81
2022-12-14T12:40:04.934Z,100052.47
2022-12-14T12:42:53.466Z,100055.50
2022-12-14T12:45:32.027Z,100046.94
2022-12-14T12:48:12.017Z,100039.94
2022-12-14T12:50:50.567Z,100043.94
2022-12-14T12:53:25.916Z,100041.84
2022-12-14T12:56:00.089Z,100041.25
2022-12-14T12:58:34.343Z,100032.88
2022-12-14T13:01:15.826Z,100035.75
2022-12-14T13:03:54.698Z,100030.88
2022-12-14T13:06:31.540Z,100023.50
2022-12-14T13:09:08.002Z,100028.16
2022-12-14T13:11:41.338Z,100022.22
2022-12-14T13:14:30.708Z,100021.59
2022-12-14T13:17:04.756Z,100013.03
2022-12-14T13:19:52.677Z,100009.88
2022-12-14T13:22:29.686Z,100004.75
2022-12-14T13:25:04.485Z,100006.81
2022-12-14T13:28:31.336Z,100009.84
2022-12-14T13:31:15.749Z,100013.47
2022-12-14T13:34:09.454Z,100006.84
2022-12-14T13:37:27.598Z,100004.50
2022-12-14T13:40:36.110Z,100002.25
2022-12-14T13:43:40.049Z,100003.59
2022-12-14T13:46:23.100Z,100000.25
2022-12-14T13:49:00.321Z,100003.22
2022-12-14T13:51:38.648Z,100003.06
2022-12-14T13:54:22.804Z,99995.63
2022-12-14T13:56:52.145Z,99992.19
2022-12-14T13:59:33.137Z,99994.88
2022-12-14T14:02:05.122Z,99998.56
2022-12-14T14:04:35.812Z,99996.97
2022-12-14T14:07:50.809Z,100001.59
2022-12-14T14:10:32.887Z,100002.19
2022-12-14T14:13:03.842Z,99996.97
2022-12-14T14:16:26.216Z,100004.31
2022-12-14T14:19:04.856Z,100001.03
2022-12-14T14:22:06.110Z,99999.41
2022-12-14T14:24:31.083Z,100000.25
2022-12-14T14:27:12.791Z,99995.13
2022-12-14T14:29:49.570Z,99991.09
2022-12-14T14:32:39.182Z,99992.22
2022-12-14T14:35:26.490Z,99999.59
2022-12-14T14:38:01.888Z,99992.50
2022-12-14T14:41:14.681Z,99996.91
2022-12-14T14:43:33.511Z,99998.09
2022-12-14T14:46:08.495Z,99989.94
2022-12-14T14:48:43.625Z,100000.88
2022-12-14T14:51:25.397Z,99989.59
2022-12-14T14:55:06.933Z,99997.94
2022-12-14T14:57:36.544Z,100003.38
2022-12-14T15:00:11.428Z,99994.19
2022-12-14T15:02:45.838Z,100000.16
2022-12-14T15:08:23.931Z,100002.81
2022-12-14T15:10:56.044Z,100017.09
2022-12-14T15:13:29.902Z,100015.78
2022-12-14T15:15:58.958Z,100021.28
2022-12-14T15:18:30.995Z,100028.56
2022-12-14T15:21:03.862Z,100031.34
2022-12-14T15:23:40.060Z,100031.53
2022-12-14T15:26:20.910Z,100032.03
2022-12-14T15:29:00.625Z,100035.81
2022-12-14T15:31:32.688Z,100027.09
2022-12-14T15:34:04.041Z,100027.31
2022-12-14T15:36:40.124Z,100033.44
2022-12-14T15:39:36.583Z,100041.53
2022-12-14T15:42:15.700Z,100042.41
2022-12-14T15:44:51.468Z,100047.44
2022-12-14T15:47:30.180Z,100040.75
2022-12-14T15:50:19.550Z,100034.50
2022-12-14T15:52:50.091Z,100034.44
2022-12-14T15:55:34.434Z,100033.56
2022-12-14T15:58:11.642Z,100035.63
2022-12-14T16:00:46.921Z,100028.00
2022-12-14T16:03:29.342Z,100025.94
2022-12-14T16:06:01.937Z,100016.09
2022-12-14T16:08:38.484Z,100019.22
2022-12-14T16:11:22.058Z,100015.47
2022-12-14T16:13:51.569Z,100009.88
2022-12-14T16:16:21.465Z,100006.25
2022-12-14T16:18:52.750Z,100005.59
2022-12-14T16:21:31.633Z,100003.09
2022-12-14T16:24:02.114Z,99998.38
2022-12-14T16:26:38.759Z,100005.78
2022-12-14T16:29:11.387Z,100008.78
2022-12-14T16:31:40.246Z,100006.28
2022-12-14T16:34:17.030Z,100010.84
2022-12-14T16:37:14.634Z,100005.91
2022-12-14T16:39:45.793Z,100008.59
2022-12-14T16:42:21.958Z,100005.28
2022-12-14T16:44:54.218Z,100014.88
2022-12-14T16:48:02.487Z,100002.63
2022-12-14T16:50:55.925Z,100008.66
2022-12-14T16:53:26.461Z,100014.00
2022-12-14T16:56:06.030Z,100011.53
2022-12-14T16:58:37.838Z,100012.56
2022-12-14T17:01:10.832Z,100022.25
2022-12-14T17:03:41.477Z,100022.38
2022-12-14T17:06:23.718Z,100023.38
2022-12-14T17:08:52.751Z,100025.06
2022-12-14T17:11:23.970Z,100023.09
2022-12-14T17:13:54.332Z,100020.38
2022-12-14T17:16:24.114Z,100018.53
2022-12-14T17:18:52.776Z,100018.59
2022-12-14T17:21:29.431Z,100019.56
2022-12-14T17:23:59.253Z,100015.38
2022-12-14T17:26:30.977Z,100019.72
2022-12-14T17:29:01.219Z,100019.84
2022-12-14T17:31:30.065Z,100022.38
2022-12-14T17:33:58.987Z,100008.56
2022-12-14T17:36:28.101Z,100008.63
2022-12-14T17:38:58.705Z,100006.91
2022-12-14T17:41:28.826Z,100014.75
2022-12-14T17:43:58.432Z,100005.25
2022-12-14T17:46:29.641Z,99992.25
2022-12-14T17:49:02.850Z,100005.28
2022-12-14T17:51:42.183Z,100001.91
2022-12-14T17:54:17.659Z,99995.78
2022-12-14T17:56:48.000Z,99990.53
2022-12-14T17:59:17.061Z,99994.75
2022-12-14T18:01:47.844Z,99992.09
2022-12-14T18:04:18.429Z,99995.53
2022-12-14T18:06:47.004Z,99998.19
2022-12-14T18:09:16.255Z,100002.53
2022-12-14T18:12:00.541Z,100001.56
2022-12-14T18:14:33.770Z,99997.25
2022-12-14T18:17:08.242Z,99994.69
2022-12-14T18:19:40.420Z,100005.94
2022-12-14T18:22:09.800Z,100010.41
2022-12-14T18:24:38.595Z,100006.22
2022-12-14T18:27:07.699Z,100013.19
2022-12-14T18:29:36.483Z,100012.22
2022-12-14T18:32:07.307Z,100014.13
2022-12-14T18:34:36.349Z,100004.34
2022-12-14T18:37:05.192Z,100009.88
2022-12-14T18:39:37.022Z,99998.97
2022-12-14T18:42:05.867Z,100002.31
2022-12-14T18:44:34.495Z,100000.28
2022-12-14T18:47:26.693Z,99997.38
2022-12-14T18:49:53.889Z,100008.44
2022-12-14T18:52:22.594Z,100004.13
2022-12-14T18:54:54.311Z,100003.25
2022-12-14T18:57:22.910Z,100001.31
2022-12-14T18:59:51.725Z,100002.13
2022-12-14T19:02:20.845Z,100005.50
2022-12-14T19:04:50.026Z,99998.38
2022-12-14T19:07:20.066Z,100007.38
2022-12-14T19:09:48.819Z,100004.34
2022-12-14T19:12:17.568Z,99998.69
2022-12-14T19:14:49.349Z,100002.88
2022-12-14T19:17:18.269Z,100002.25
2022-12-14T19:19:46.789Z,100005.50
2022-12-14T19:22:15.589Z,100013.66
2022-12-14T19:24:52.142Z,100008.75
2022-12-14T19:27:42.642Z,100004.63
2022-12-14T19:30:16.534Z,100012.47
2022-12-14T19:32:45.300Z,100013.22
2022-12-14T19:35:17.914Z,100004.38
2022-12-14T19:37:46.662Z,100019.50
2022-12-14T19:40:17.734Z,100015.09
2022-12-14T19:42:47.049Z,100021.28
2022-12-14T19:45:16.734Z,100022.94
2022-12-14T19:47:45.446Z,100022.00
2022-12-14T19:50:17.317Z,100025.41
2022-12-14T19:52:46.017Z,100016.16
2022-12-14T19:55:16.016Z,100024.66
2022-12-14T19:57:44.660Z,100022.94
2022-12-14T20:00:14.600Z,100023.88
2022-12-14T20:02:46.347Z,100023.88
2022-12-14T20:05:19.142Z,100020.63
2022-12-14T20:07:47.805Z,100020.72
2022-12-14T20:10:18.140Z,100026.16
2022-12-14T20:12:46.783Z,100026.31
2022-12-14T20:15:15.504Z,100019.13
2022-12-14T20:17:44.081Z,100016.53
2022-12-14T20:20:13.497Z,100026.09
2022-12-14T20:22:42.411Z,100026.88
2022-12-14T20:25:13.655Z,100030.31
2022-12-14T20:27:43.991Z,100028.69
2022-12-14T20:30:13.874Z,100027.28
2022-12-14T20:32:42.543Z,100026.44
2022-12-14T20:35:12.236Z,100016.91
2022-12-14T20:37:41.128Z,100031.19
2022-12-14T20:40:12.464Z,100031.81
2022-12-14T20:42:42.636Z,100023.03
2022-12-14T20:45:11.968Z,100024.66
2022-12-14T20:47:40.765Z,100027.19
2022-12-14T20:50:09.746Z,100021.00
2022-12-14T20:52:38.643Z,100017.31
2022-12-14T20:55:08.230Z,100018.28
2022-12-14T20:57:37.051Z,100027.91
2022-12-14T21:00:08.887Z,100030.41
2022-12-14T21:02:37.679Z,100032.06
2022-12-14T21:05:07.664Z,100035.63
2022-12-14T21:07:39.557Z,100038.03
2022-12-14T21:10:10.080Z,100030.16
2022-12-14T21:12:38.793Z,100032.66
2022-12-14T21:15:10.383Z,100040.59
2022-12-14T21:17:39.309Z,100043.47
2022-12-14T21:20:09.410Z,100051.28
2022-12-14T21:22:38.106Z,100048.84
2022-12-14T21:25:08.010Z,100049.06
2022-12-14T21:27:39.674Z,100049.22
2022-12-14T21:30:13.165Z,100059.88
2022-12-14T21:32:42.045Z,100065.44
2022-12-14T21:35:13.290Z,100055.97
2022-12-14T21:37:42.264Z,100058.69
2022-12-14T21:40:32.106Z,100050.88
2022-12-14T21:42:59.727Z,100060.34
2022-12-14T21:45:29.941Z,100057.81
2022-12-14T21:47:58.636Z,100060.72
2022-12-14T21:50:27.327Z,100055.72
2022-12-14T21:52:55.905Z,100050.69
2022-12-14T21:55:24.512Z,100048.78
2022-12-14T21:58:10.429Z,100045.00
2022-12-14T22:00:40.818Z,100039.56
2022-12-14T22:03:09.569Z,100044.13
2022-12-14T22:05:40.037Z,100041.63
2022-12-14T22:08:08.631Z,100039.72
2022-12-14T22:10:37.242Z,100044.03
2022-12-14T22:13:06.145Z,100047.53
2022-12-14T22:15:34.772Z,100057.16
2022-12-14T22:18:05.059Z,100051.16
2022-12-14T22:20:34.611Z,100046.16
2022-12-14T22:23:03.357Z,100050.56
2022-12-14T22:25:32.001Z,100045.28
2022-12-14T22:28:00.615Z,100050.78
2022-12-14T22:30:31.793Z,100054.31
2022-12-14T22:33:00.712Z,100055.44
2022-12-14T22:35:30.868Z,100053.22
2022-12-14T22:38:01.017Z,100053.56
2022-12-14T22:40:31.755Z,100043.84
2022-12-14T22:43:01.066Z,100047.13
2022-12-14T22:45:29.685Z,100050.38
2022-12-14T22:47:58.298Z,100052.13
2022-12-14T22:50:26.937Z,100051.81
2022-12-14T22:52:56.931Z,100047.16
2022-12-14T22:55:25.914Z,100055.00
2022-12-14T22:57:56.262Z,100048.28
2022-12-14T23:00:25.215Z,100043.38
2022-12-14T23:02:53.974Z,100039.13
2022-12-14T23:05:22.924Z,100035.75
2022-12-14T23:07:53.444Z,100040.22
2022-12-14T23:10:41.048Z,100042.13
2022-12-14T23:13:27.277Z,100043.38
2022-12-14T23:16:13.816Z,100041.09
2022-12-14T23:19:03.134Z,100034.28
2022-12-14T23:21:49.410Z,100035.22
2022-12-14T23:24:35.681Z,100040.84
2022-12-14T23:27:23.396Z,100052.63
2022-12-14T23:30:09.573Z,100054.38
2022-12-14T23:32:55.743Z,100050.78
2022-12-14T23:35:41.968Z,100053.25
2022-12-14T23:38:28.858Z,100050.50
2022-12-14T23:41:18.976Z,100048.50
2022-12-14T23:44:06.642Z,100055.41
2022-12-14T23:46:52.830Z,100044.94
2022-12-14T23:49:38.939Z,100045.69
2022-12-14T23:52:25.024Z,100045.66
2022-12-14T23:55:11.137Z,100036.19
2022-12-14T23:57:57.178Z,100044.16
